Time;durP1;ratioP1;P1;durP2;ratioP2;P2;SDS_P1;SDS_P2;PMS_P1;PMS_P2;Temp;Humidity;BMP_temperature;BMP_pressure;BME280_temperature;BME280_humidity;BME280_pressure;Samples;Min_cycle;Max_cycle;Signal;HPM_P1;HPM_P2
2022/03/26 00:00:57;;;;;;;88.07;38.60;;;;;;;;;;5057739;28;20303;-55
2022/03/26 00:03:24;;;;;;;78.30;34.57;;;;;;;;;;5057722;28;20282;-58
2022/03/26 00:05:51;;;;;;;67.20;32.60;;;;;;;;;;5057320;28;20258;-54
2022/03/26 00:08:18;;;;;;;80.37;36.00;;;;;;;;;;5057110;28;20313;-52
2022/03/26 00:10:46;;;;;;;86.37;38.00;;;;;;;;;;5056729;28;20208;-55
2022/03/26 00:13:13;;;;;;;97.30;39.93;;;;;;;;;;5056386;28;20199;-53
2022/03/26 00:15:41;;;;;;;83.20;37.17;;;;;;;;;;5057551;28;20200;-52
2022/03/26 00:18:11;;;;;;;96.70;41.27;;;;;;;;;;5057388;28;20514;-56
2022/03/26 00:20:38;;;;;;;157.50;81.23;;;;;;;;;;5057548;28;20561;-54
2022/03/26 00:23:05;;;;;;;94.03;42.90;;;;;;;;;;5057436;28;20295;-55
2022/03/26 00:25:32;;;;;;;92.40;40.07;;;;;;;;;;5057958;28;20216;-52
2022/03/26 00:27:59;;;;;;;77.82;35.00;;;;;;;;;;5056305;28;20660;-53
2022/03/26 00:30:26;;;;;;;79.80;37.97;;;;;;;;;;5056812;28;20287;-52
2022/03/26 00:32:54;;;;;;;80.30;35.63;;;;;;;;;;5057351;28;20622;-55
2022/03/26 00:35:21;;;;;;;77.30;35.47;;;;;;;;;;5057110;28;20218;-54
2022/03/26 00:37:48;;;;;;;87.00;39.47;;;;;;;;;;5057342;28;20209;-52
2022/03/26 00:40:15;;;;;;;91.23;38.77;;;;;;;;;;5057022;28;20230;-56
2022/03/26 00:42:42;;;;;;;110.77;55.53;;;;;;;;;;5056829;28;20204;-53
2022/03/26 00:45:09;;;;;;;85.63;38.27;;;;;;;;;;5057035;28;20261;-52
2022/03/26 00:47:36;;;;;;;72.63;34.57;;;;;;;;;;5057081;28;20287;-57
2022/03/26 00:50:04;;;;;;;81.80;36.83;;;;;;;;;;5057191;28;20231;-55
2022/03/26 00:52:31;;;;;;;76.17;36.20;;;;;;;;;;5056809;28;20730;-52
2022/03/26 00:54:58;;;;;;;76.73;36.40;;;;;;;;;;5056609;28;20516;-54
2022/03/26 00:57:25;;;;;;;79.40;35.20;;;;;;;;;;5053768;28;20206;-55
2022/03/26 00:59:53;;;;;;;78.33;34.33;;;;;;;;;;5056088;28;20540;-54
2022/03/26 01:02:20;;;;;;;90.93;40.77;;;;;;;;;;5056232;28;20626;-52
2022/03/26 01:04:47;;;;;;;84.13;37.10;;;;;;;;;;5056566;28;20283;-53
2022/03/26 01:07:14;;;;;;;108.77;41.67;;;;;;;;;;5056235;28;20210;-58
2022/03/26 01:09:41;;;;;;;80.13;36.57;;;;;;;;;;5054994;28;20236;-54
2022/03/26 01:12:09;;;;;;;81.60;36.33;;;;;;;;;;5056255;28;20642;-53
2022/03/26 01:14:37;;;;;;;75.80;34.13;;;;;;;;;;5056549;28;20200;-52
2022/03/26 01:17:04;;;;;;;73.27;35.47;;;;;;;;;;5056296;28;20296;-56
2022/03/26 01:19:31;;;;;;;75.47;35.23;;;;;;;;;;5056277;28;20283;-53
2022/03/26 01:21:58;;;;;;;91.37;37.50;;;;;;;;;;5056289;28;20571;-52
2022/03/26 01:24:25;;;;;;;216.97;118.53;;;;;;;;;;5056089;28;20631;-53
2022/03/26 01:26:52;;;;;;;120.90;58.13;;;;;;;;;;5056341;28;20533;-53
2022/03/26 01:29:19;;;;;;;86.17;37.20;;;;;;;;;;5056035;28;20196;-54
2022/03/26 01:31:46;;;;;;;109.50;43.03;;;;;;;;;;5056254;28;20200;-55
2022/03/26 01:34:14;;;;;;;75.20;35.30;;;;;;;;;;5056209;28;20204;-53
2022/03/26 01:36:42;;;;;;;65.40;32.30;;;;;;;;;;5056212;28;20295;-55
2022/03/26 01:39:09;;;;;;;67.77;34.20;;;;;;;;;;5055947;28;20283;-55
2022/03/26 01:41:37;;;;;;;72.33;34.50;;;;;;;;;;5055116;28;20319;-55
2022/03/26 01:44:04;;;;;;;77.10;37.00;;;;;;;;;;5056239;28;20638;-57
2022/03/26 01:46:48;;;;;;;92.93;44.63;;;;;;;;;;5055996;28;20204;-52
2022/03/26 01:49:17;;;;;;;74.60;34.53;;;;;;;;;;5055937;28;20204;-53
2022/03/26 01:51:44;;;;;;;69.47;34.43;;;;;;;;;;5055786;28;20200;-55
2022/03/26 01:54:12;;;;;;;69.13;34.80;;;;;;;;;;5055521;28;20218;-55
2022/03/26 01:56:39;;;;;;;85.67;37.33;;;;;;;;;;5054659;28;20272;-53
2022/03/26 01:59:07;;;;;;;77.27;34.63;;;;;;;;;;5055850;28;20211;-54
2022/03/26 02:01:35;;;;;;;74.17;35.80;;;;;;;;;;5071226;28;20223;-54
2022/03/26 02:04:05;;;;;;;69.97;34.80;;;;;;;;;;5055337;28;20204;-55
2022/03/26 02:06:33;;;;;;;79.50;38.00;;;;;;;;;;5055174;28;20204;-55
2022/03/26 02:09:02;;;;;;;86.90;40.53;;;;;;;;;;5055468;28;20238;-53
2022/03/26 02:11:33;;;;;;;75.13;36.07;;;;;;;;;;5055208;28;20245;-54
2022/03/26 02:14:02;;;;;;;88.10;37.37;;;;;;;;;;5055419;28;20208;-55
2022/03/26 02:16:30;;;;;;;70.23;35.07;;;;;;;;;;5055537;28;20205;-55
2022/03/26 02:18:58;;;;;;;80.00;36.80;;;;;;;;;;5055341;28;20207;-55
2022/03/26 02:21:25;;;;;;;84.50;38.33;;;;;;;;;;5055436;28;20600;-55
2022/03/26 02:23:52;;;;;;;72.30;36.10;;;;;;;;;;5055085;28;20206;-54
2022/03/26 02:26:26;;;;;;;83.33;37.73;;;;;;;;;;5070730;28;20542;-54
2022/03/26 02:28:54;;;;;;;119.43;56.33;;;;;;;;;;5055324;28;20204;-56
2022/03/26 02:31:22;;;;;;;100.57;41.40;;;;;;;;;;5055141;28;20207;-54
2022/03/26 02:33:49;;;;;;;94.87;38.27;;;;;;;;;;5054783;28;20231;-55
2022/03/26 02:36:16;;;;;;;80.53;37.17;;;;;;;;;;5055086;28;20247;-56
2022/03/26 02:38:43;;;;;;;118.87;45.53;;;;;;;;;;5054885;28;20214;-55
2022/03/26 02:41:10;;;;;;;83.07;37.63;;;;;;;;;;5054870;28;20224;-56
2022/03/26 02:43:37;;;;;;;88.07;38.03;;;;;;;;;;5055044;28;20286;-55
2022/03/26 02:46:05;;;;;;;91.13;39.53;;;;;;;;;;5040345;28;20265;-55
2022/03/26 02:48:34;;;;;;;480.17;227.07;;;;;;;;;;5034124;28;20793;-57
2022/03/26 02:51:01;;;;;;;100.60;49.30;;;;;;;;;;5034196;28;20219;-55
2022/03/26 02:53:28;;;;;;;77.03;37.80;;;;;;;;;;5034751;28;20224;-54
2022/03/26 02:55:55;;;;;;;82.90;37.03;;;;;;;;;;5034320;28;20631;-55
2022/03/26 02:58:22;;;;;;;80.53;37.03;;;;;;;;;;5033180;28;20200;-54
2022/03/26 03:00:49;;;;;;;72.90;36.20;;;;;;;;;;5034796;28;20224;-52
2022/03/26 03:03:17;;;;;;;69.83;34.53;;;;;;;;;;5034654;28;20624;-52
2022/03/26 03:05:46;;;;;;;75.63;37.60;;;;;;;;;;5035126;28;20266;-53
2022/03/26 03:08:15;;;;;;;83.77;37.63;;;;;;;;;;5034863;28;20236;-53
2022/03/26 03:10:43;;;;;;;125.83;62.87;;;;;;;;;;5034740;28;20247;-51
2022/03/26 03:13:10;;;;;;;86.33;40.20;;;;;;;;;;5034597;28;20215;-54
2022/03/26 03:15:38;;;;;;;92.43;40.57;;;;;;;;;;5034738;28;20200;-54
2022/03/26 03:18:05;;;;;;;76.40;36.30;;;;;;;;;;5034612;28;20291;-55
2022/03/26 03:20:32;;;;;;;82.47;39.77;;;;;;;;;;5066493;28;20209;-53
2022/03/26 03:22:59;;;;;;;87.00;38.40;;;;;;;;;;5034694;28;20211;-55
2022/03/26 03:25:29;;;;;;;67.60;34.40;;;;;;;;;;5034380;28;20701;-51
2022/03/26 03:27:57;;;;;;;74.47;37.93;;;;;;;;;;5043425;28;20262;-56
2022/03/26 03:30:26;;;;;;;87.43;38.77;;;;;;;;;;5036181;28;20623;-57
2022/03/26 03:32:53;;;;;;;95.13;43.47;;;;;;;;;;5035123;28;20292;-52
2022/03/26 03:35:21;;;;;;;89.03;40.87;;;;;;;;;;5034601;28;20288;-55
2022/03/26 03:37:49;;;;;;;75.00;38.57;;;;;;;;;;5034551;28;20227;-54
2022/03/26 03:40:17;;;;;;;91.77;38.80;;;;;;;;;;5034222;28;20196;-55
2022/03/26 03:42:45;;;;;;;83.47;38.80;;;;;;;;;;5034389;28;20228;-57
2022/03/26 03:45:12;;;;;;;75.73;37.40;;;;;;;;;;5034199;28;20296;-54
2022/03/26 03:47:39;;;;;;;85.87;39.43;;;;;;;;;;5034089;28;20211;-54
2022/03/26 03:50:07;;;;;;;95.93;40.73;;;;;;;;;;5034027;28;20270;-54
2022/03/26 03:52:34;;;;;;;260.23;122.60;;;;;;;;;;5034036;28;20215;-56
2022/03/26 03:55:01;;;;;;;107.60;43.30;;;;;;;;;;5041589;28;20215;-55
2022/03/26 03:57:28;;;;;;;82.03;38.23;;;;;;;;;;5037341;28;20307;-56
2022/03/26 03:59:55;;;;;;;76.43;36.80;;;;;;;;;;5033953;28;20204;-57
2022/03/26 04:02:22;;;;;;;102.27;43.30;;;;;;;;;;5033722;28;20235;-54
2022/03/26 04:04:50;;;;;;;88.23;40.77;;;;;;;;;;5033949;28;20196;-52
2022/03/26 04:07:17;;;;;;;79.70;38.83;;;;;;;;;;5037443;28;20293;-54
2022/03/26 04:09:44;;;;;;;82.17;39.10;;;;;;;;;;5037736;28;20697;-54
2022/03/26 04:12:11;;;;;;;155.43;77.83;;;;;;;;;;5037598;28;20205;-54
2022/03/26 04:14:43;;;;;;;96.83;45.67;;;;;;;;;;5037306;28;20200;-54
2022/03/26 04:17:12;;;;;;;79.07;36.47;;;;;;;;;;5037607;28;20271;-55
2022/03/26 04:19:40;;;;;;;70.07;35.90;;;;;;;;;;5037202;28;20200;-55
2022/03/26 04:22:07;;;;;;;76.20;38.03;;;;;;;;;;5037300;28;20229;-55
2022/03/26 04:24:36;;;;;;;70.47;37.97;;;;;;;;;;5037366;28;20211;-56
2022/03/26 04:27:03;;;;;;;66.87;34.10;;;;;;;;;;5037295;28;20219;-52
2022/03/26 04:29:31;;;;;;;80.03;37.23;;;;;;;;;;5037028;28;20200;-55
2022/03/26 04:31:58;;;;;;;78.93;37.07;;;;;;;;;;5049883;28;20646;-58
2022/03/26 04:34:26;;;;;;;106.80;61.67;;;;;;;;;;5053383;28;20942;-59
2022/03/26 04:36:53;;;;;;;70.63;36.90;;;;;;;;;;5055856;28;20208;-52
2022/03/26 04:39:20;;;;;;;66.93;35.33;;;;;;;;;;5054040;28;20196;-56
2022/03/26 04:41:48;;;;;;;67.83;35.27;;;;;;;;;;5054281;28;20246;-56
2022/03/26 04:44:15;;;;;;;76.90;37.23;;;;;;;;;;5055375;28;20524;-56
2022/03/26 04:46:42;;;;;;;87.63;40.20;;;;;;;;;;5052341;28;20296;-59
2022/03/26 04:49:10;;;;;;;76.23;39.20;;;;;;;;;;5054843;28;20215;-57
2022/03/26 04:51:37;;;;;;;83.50;39.00;;;;;;;;;;5055435;28;20214;-57
2022/03/26 04:54:04;;;;;;;64.17;35.43;;;;;;;;;;5051332;28;20219;-58
2022/03/26 04:56:31;;;;;;;92.50;41.87;;;;;;;;;;5055541;28;20650;-55
2022/03/26 04:58:58;;;;;;;80.00;39.57;;;;;;;;;;5055136;28;20291;-56
2022/03/26 05:01:25;;;;;;;80.93;38.03;;;;;;;;;;5055038;28;20558;-57
2022/03/26 05:03:52;;;;;;;72.47;37.60;;;;;;;;;;5055542;28;20192;-58
2022/03/26 05:06:20;;;;;;;81.30;35.97;;;;;;;;;;5055158;28;20200;-56
2022/03/26 05:08:48;;;;;;;81.50;40.23;;;;;;;;;;5054874;28;20345;-59
2022/03/26 05:11:16;;;;;;;75.27;36.40;;;;;;;;;;5055584;28;20210;-58
2022/03/26 05:13:43;;;;;;;78.97;37.27;;;;;;;;;;5056195;28;20200;-58
2022/03/26 05:16:10;;;;;;;108.30;53.27;;;;;;;;;;5047480;28;20207;-58
2022/03/26 05:18:37;;;;;;;81.17;37.67;;;;;;;;;;5047499;28;20623;-56
2022/03/26 05:21:07;;;;;;;70.50;34.83;;;;;;;;;;5037131;28;20229;-58
2022/03/26 05:23:35;;;;;;;74.90;36.10;;;;;;;;;;5052631;28;20196;-56
2022/03/26 05:26:03;;;;;;;77.90;35.50;;;;;;;;;;5053849;28;20558;-58
2022/03/26 05:28:30;;;;;;;75.97;35.63;;;;;;;;;;5055668;28;20550;-59
2022/03/26 05:30:58;;;;;;;73.67;37.87;;;;;;;;;;5036189;28;20211;-52
2022/03/26 05:33:25;;;;;;;74.80;37.80;;;;;;;;;;5048661;28;20232;-57
2022/03/26 05:35:52;;;;;;;274.17;114.77;;;;;;;;;;5054036;28;20291;-58
2022/03/26 05:38:19;;;;;;;97.00;40.73;;;;;;;;;;5036388;28;20200;-53
2022/03/26 05:40:46;;;;;;;83.37;37.77;;;;;;;;;;5037093;28;20299;-58
2022/03/26 05:43:13;;;;;;;84.93;36.50;;;;;;;;;;5050861;28;20228;-54
2022/03/26 05:45:40;;;;;;;105.60;41.53;;;;;;;;;;5054916;28;20698;-58
2022/03/26 05:48:08;;;;;;;77.80;38.13;;;;;;;;;;5054475;28;20307;-53
2022/03/26 05:50:35;;;;;;;79.03;36.63;;;;;;;;;;5055247;28;20524;-55
2022/03/26 05:53:02;;;;;;;82.67;38.03;;;;;;;;;;5054224;28;20232;-58
2022/03/26 05:55:29;;;;;;;72.77;34.97;;;;;;;;;;5054896;28;20232;-59
2022/03/26 05:57:56;;;;;;;105.22;47.70;;;;;;;;;;5054225;28;20298;-59
2022/03/26 06:00:23;;;;;;;78.30;36.10;;;;;;;;;;5054948;28;20307;-59
2022/03/26 06:02:50;;;;;;;74.00;36.22;;;;;;;;;;5054580;28;20235;-56
2022/03/26 06:05:17;;;;;;;81.07;34.70;;;;;;;;;;5054682;28;20224;-56
2022/03/26 06:07:45;;;;;;;65.63;32.17;;;;;;;;;;5054289;28;20254;-52
2022/03/26 06:10:12;;;;;;;66.18;31.05;;;;;;;;;;5054303;28;20261;-59
2022/03/26 06:12:44;;;;;;;72.68;35.03;;;;;;;;;;5054024;28;20297;-57
2022/03/26 06:15:12;;;;;;;59.70;32.70;;;;;;;;;;5051826;28;20239;-60
2022/03/26 06:17:59;;;;;;;185.95;84.20;;;;;;;;;;5043333;28;20541;-59
2022/03/26 06:20:27;;;;;;;69.50;33.75;;;;;;;;;;5034313;28;20225;-57
2022/03/26 06:22:54;;;;;;;66.53;33.10;;;;;;;;;;5034699;28;20323;-57
2022/03/26 06:25:21;;;;;;;66.28;33.20;;;;;;;;;;5034302;28;20671;-57
2022/03/26 06:27:49;;;;;;;66.32;32.40;;;;;;;;;;5049314;28;20425;-58
2022/03/26 06:30:16;;;;;;;65.72;32.55;;;;;;;;;;5053997;28;20315;-57
2022/03/26 06:32:43;;;;;;;66.53;32.90;;;;;;;;;;5053962;28;20735;-59
2022/03/26 06:35:11;;;;;;;64.32;33.42;;;;;;;;;;5054127;28;20224;-55
2022/03/26 06:37:38;;;;;;;62.92;34.47;;;;;;;;;;5068698;28;20254;-57
2022/03/26 06:40:07;;;;;;;63.85;33.25;;;;;;;;;;5054109;28;20247;-60
2022/03/26 06:42:34;;;;;;;56.58;30.70;;;;;;;;;;5053536;28;20251;-59
2022/03/26 06:45:02;;;;;;;60.38;32.03;;;;;;;;;;5053794;28;20604;-59
2022/03/26 06:47:31;;;;;;;81.85;36.63;;;;;;;;;;5053935;28;20223;-59
2022/03/26 06:49:58;;;;;;;63.20;30.92;;;;;;;;;;5053997;28;20311;-60
2022/03/26 06:52:25;;;;;;;71.35;33.28;;;;;;;;;;5054039;28;20310;-60
2022/03/26 06:54:52;;;;;;;60.53;30.42;;;;;;;;;;5053815;28;20235;-60
2022/03/26 06:57:20;;;;;;;54.40;30.40;;;;;;;;;;5053258;28;20314;-59
2022/03/26 06:59:47;;;;;;;102.22;51.28;;;;;;;;;;5054011;28;20250;-51
2022/03/26 07:02:14;;;;;;;60.75;31.52;;;;;;;;;;5053815;28;20215;-58
2022/03/26 07:04:42;;;;;;;60.25;31.83;;;;;;;;;;5053754;28;20327;-59
2022/03/26 07:07:12;;;;;;;58.83;32.08;;;;;;;;;;5053836;28;20302;-59
2022/03/26 07:09:39;;;;;;;62.05;33.42;;;;;;;;;;5053561;28;20232;-59
2022/03/26 07:12:06;;;;;;;61.47;31.90;;;;;;;;;;5053236;28;20321;-59
2022/03/26 07:14:34;;;;;;;67.65;33.10;;;;;;;;;;5053662;28;20293;-59
2022/03/26 07:17:00;;;;;;;85.22;35.42;;;;;;;;;;5053806;28;20232;-59
2022/03/26 07:19:28;;;;;;;77.30;34.40;;;;;;;;;;5053563;28;20224;-51
2022/03/26 07:21:55;;;;;;;80.97;38.47;;;;;;;;;;5053574;28;20670;-58
2022/03/26 07:24:22;;;;;;;64.00;33.78;;;;;;;;;;5053176;28;20670;-58
2022/03/26 07:26:50;;;;;;;66.55;32.60;;;;;;;;;;5050347;28;20600;-60
2022/03/26 07:29:17;;;;;;;68.05;31.95;;;;;;;;;;5050750;28;20223;-60
2022/03/26 07:31:46;;;;;;;68.70;32.17;;;;;;;;;;5051460;28;20212;-59
2022/03/26 07:34:15;;;;;;;59.00;29.13;;;;;;;;;;5051629;28;20230;-59
2022/03/26 07:36:44;;;;;;;60.10;28.98;;;;;;;;;;5052328;28;20224;-59
2022/03/26 07:39:12;;;;;;;48.58;26.58;;;;;;;;;;5051981;28;20234;-60
2022/03/26 07:41:40;;;;;;;61.72;34.63;;;;;;;;;;5050783;28;20223;-60
2022/03/26 07:44:08;;;;;;;58.47;27.38;;;;;;;;;;5049332;28;20228;-60
2022/03/26 07:46:35;;;;;;;53.55;25.52;;;;;;;;;;5049183;28;20262;-59
2022/03/26 07:49:02;;;;;;;47.38;23.85;;;;;;;;;;5055328;28;20311;-59
2022/03/26 07:51:30;;;;;;;47.50;24.95;;;;;;;;;;5056017;28;20716;-59
2022/03/26 07:53:57;;;;;;;44.03;23.02;;;;;;;;;;5056415;28;20244;-59
2022/03/26 07:56:24;;;;;;;49.03;24.02;;;;;;;;;;5055891;28;20272;-59
2022/03/26 07:58:51;;;;;;;50.90;24.13;;;;;;;;;;5056421;28;20223;-59
2022/03/26 08:01:18;;;;;;;45.88;20.98;;;;;;;;;;5056824;28;20234;-59
2022/03/26 08:03:46;;;;;;;34.25;20.50;;;;;;;;;;5056237;28;20236;-58
2022/03/26 08:06:13;;;;;;;53.72;25.63;;;;;;;;;;5056631;28;20227;-58
2022/03/26 08:08:41;;;;;;;56.42;26.20;;;;;;;;;;5056874;28;20312;-56
2022/03/26 08:11:08;;;;;;;51.30;25.38;;;;;;;;;;5056407;28;20262;-57
2022/03/26 08:13:35;;;;;;;37.22;21.83;;;;;;;;;;5056670;28;20716;-55
2022/03/26 08:16:02;;;;;;;38.88;21.80;;;;;;;;;;5055239;28;20234;-55
2022/03/26 08:18:29;;;;;;;40.97;21.42;;;;;;;;;;5055849;28;20281;-57
2022/03/26 08:21:03;;;;;;;40.55;19.60;;;;;;;;;;5051359;28;20311;-55
2022/03/26 08:23:30;;;;;;;65.15;30.02;;;;;;;;;;5051840;28;20575;-57
2022/03/26 08:28:43;;;;;;;43.30;21.48;;;;;;;;;;5056960;28;20199;-57
2022/03/26 08:31:10;;;;;;;37.80;19.63;;;;;;;;;;5057252;28;20287;-57
2022/03/26 08:33:38;;;;;;;35.17;20.67;;;;;;;;;;5056886;28;20228;-58
2022/03/26 08:36:05;;;;;;;30.95;16.95;;;;;;;;;;5056880;28;20200;-61
2022/03/26 08:38:33;;;;;;;31.92;17.30;;;;;;;;;;5056825;28;20279;-61
2022/03/26 08:41:00;;;;;;;33.40;17.90;;;;;;;;;;5056393;28;20254;-61
2022/03/26 08:43:27;;;;;;;29.73;15.80;;;;;;;;;;5055498;28;20232;-61
2022/03/26 08:45:54;;;;;;;30.98;16.65;;;;;;;;;;5055291;28;20203;-61
2022/03/26 08:48:22;;;;;;;24.52;13.00;;;;;;;;;;5040993;28;20209;-64
2022/03/26 08:50:49;;;;;;;25.02;12.80;;;;;;;;;;5036126;28;20231;-63
2022/03/26 08:53:16;;;;;;;21.00;12.35;;;;;;;;;;5036397;28;20292;-65
2022/03/26 08:55:44;;;;;;;28.77;13.30;;;;;;;;;;5036947;28;20565;-56
2022/03/26 08:58:11;;;;;;;23.77;15.60;;;;;;;;;;5046209;28;20227;-55
2022/03/26 09:00:45;;;;;;;28.55;14.95;;;;;;;;;;5055992;28;20257;-58
2022/03/26 09:03:14;;;;;;;27.92;13.38;;;;;;;;;;5044716;28;20237;-59
2022/03/26 09:05:42;;;;;;;29.25;16.15;;;;;;;;;;5052765;28;20211;-59
2022/03/26 09:08:09;;;;;;;34.63;18.60;;;;;;;;;;5040718;28;20275;-58
2022/03/26 09:10:36;;;;;;;31.85;17.08;;;;;;;;;;5035742;28;20208;-58
2022/03/26 09:13:03;;;;;;;27.95;13.93;;;;;;;;;;5053338;28;20670;-59
2022/03/26 09:15:30;;;;;;;35.08;17.67;;;;;;;;;;5053963;28;20542;-58
2022/03/26 09:17:59;;;;;;;32.05;16.80;;;;;;;;;;5053774;28;20287;-59
2022/03/26 09:20:27;;;;;;;39.78;17.80;;;;;;;;;;5053813;28;20196;-59
2022/03/26 09:22:54;;;;;;;29.38;16.75;;;;;;;;;;5051225;28;20297;-59
2022/03/26 09:25:21;;;;;;;26.92;15.77;;;;;;;;;;5054198;28;20278;-59
2022/03/26 09:27:49;;;;;;;25.55;15.30;;;;;;;;;;5055741;28;20649;-59
2022/03/26 09:30:16;;;;;;;30.95;15.65;;;;;;;;;;5054582;28;20530;-59
2022/03/26 09:32:44;;;;;;;24.98;14.20;;;;;;;;;;5055103;28;20202;-59
2022/03/26 09:35:13;;;;;;;29.40;14.77;;;;;;;;;;5054929;28;20269;-59
2022/03/26 09:37:40;;;;;;;27.13;14.00;;;;;;;;;;5054598;28;20196;-59
2022/03/26 09:40:09;;;;;;;28.65;14.90;;;;;;;;;;5055534;28;20215;-59
2022/03/26 09:42:38;;;;;;;30.98;17.30;;;;;;;;;;5042107;28;20222;-59
2022/03/26 09:45:07;;;;;;;28.23;15.85;;;;;;;;;;5052882;28;20688;-59
2022/03/26 09:47:34;;;;;;;25.45;16.02;;;;;;;;;;5054669;28;20200;-59
2022/03/26 09:50:06;;;;;;;37.38;17.33;;;;;;;;;;5055097;28;20227;-62
2022/03/26 09:52:34;;;;;;;31.48;15.63;;;;;;;;;;5055414;28;20638;-62
2022/03/26 09:55:12;;;;;;;29.30;16.40;;;;;;;;;;5055780;28;20188;-61
2022/03/26 09:57:40;;;;;;;34.50;17.05;;;;;;;;;;5055022;28;20659;-61
2022/03/26 10:00:09;;;;;;;24.33;14.68;;;;;;;;;;5055699;28;20199;-61
2022/03/26 10:02:40;;;;;;;29.00;16.50;;;;;;;;;;5054844;28;20693;-61
2022/03/26 10:05:08;;;;;;;32.17;15.90;;;;;;;;;;5054449;28;20204;-61
2022/03/26 10:07:35;;;;;;;25.00;15.65;;;;;;;;;;5035334;28;20232;-61
2022/03/26 10:10:04;;;;;;;40.65;22.65;;;;;;;;;;5053522;28;20198;-62
2022/03/26 10:12:31;;;;;;;36.40;15.52;;;;;;;;;;5053992;28;20215;-61
2022/03/26 10:15:04;;;;;;;28.13;15.95;;;;;;;;;;5052486;28;20643;-61
2022/03/26 10:17:36;;;;;;;30.60;16.88;;;;;;;;;;5051628;28;20196;-61
2022/03/26 10:20:11;;;;;;;30.85;15.50;;;;;;;;;;5052405;28;20436;-62
2022/03/26 10:22:41;;;;;;;31.77;15.30;;;;;;;;;;5053243;28;20215;-62
2022/03/26 10:25:14;;;;;;;22.55;13.60;;;;;;;;;;5052993;28;20291;-62
2022/03/26 10:27:45;;;;;;;27.83;13.23;;;;;;;;;;5054027;28;20607;-63
2022/03/26 10:30:17;;;;;;;26.85;11.57;;;;;;;;;;5055166;28;20279;-63
2022/03/26 10:32:47;;;;;;;23.75;11.55;;;;;;;;;;5055080;28;20271;-63
2022/03/26 10:35:15;;;;;;;26.33;11.32;;;;;;;;;;5055168;28;20230;-63
2022/03/26 10:37:56;;;;;;;24.67;10.98;;;;;;;;;;5054124;28;20200;-63
2022/03/26 10:40:37;;;;;;;23.33;11.60;;;;;;;;;;5037862;28;20226;-63
2022/03/26 10:43:12;;;;;;;24.67;11.75;;;;;;;;;;5054561;28;20212;-62
2022/03/26 10:45:55;;;;;;;26.02;13.40;;;;;;;;;;5053800;28;20264;-63
2022/03/26 10:48:24;;;;;;;31.58;14.05;;;;;;;;;;5054874;28;20218;-63
2022/03/26 10:50:56;;;;;;;32.60;13.48;;;;;;;;;;5054204;28;20253;-62
2022/03/26 10:53:39;;;;;;;25.40;13.85;;;;;;;;;;5054845;28;20283;-62
2022/03/26 10:56:08;;;;;;;26.80;14.18;;;;;;;;;;5054436;28;20192;-62
2022/03/26 10:58:36;;;;;;;29.83;17.35;;;;;;;;;;5054120;28;20203;-61
2022/03/26 11:01:05;;;;;;;33.03;15.35;;;;;;;;;;5053878;28;20200;-62
2022/03/26 11:03:34;;;;;;;26.85;15.43;;;;;;;;;;5053543;28;20235;-61
2022/03/26 11:06:02;;;;;;;31.75;17.42;;;;;;;;;;5054003;28;20218;-61
2022/03/26 11:08:32;;;;;;;32.80;17.83;;;;;;;;;;5051295;28;20239;-61
2022/03/26 11:11:07;;;;;;;29.42;17.63;;;;;;;;;;5050972;28;20196;-61
2022/03/26 11:13:38;;;;;;;27.55;16.02;;;;;;;;;;5054391;28;20203;-61
2022/03/26 11:16:10;;;;;;;36.28;19.75;;;;;;;;;;5058687;28;20226;-61
2022/03/26 11:18:50;;;;;;;34.53;19.70;;;;;;;;;;5039891;28;20295;-61
2022/03/26 11:21:50;;;;;;;26.50;16.23;;;;;;;;;;5038418;28;20645;-61
2022/03/26 11:24:52;;;;;;;35.40;20.23;;;;;;;;;;5055481;28;20677;-61
2022/03/26 11:27:25;;;;;;;31.73;20.10;;;;;;;;;;5045957;28;20211;-61
2022/03/26 11:30:16;;;;;;;37.83;20.50;;;;;;;;;;5058225;28;20614;-61
2022/03/26 11:32:44;;;;;;;36.78;18.25;;;;;;;;;;5061083;28;20196;-61
2022/03/26 11:35:14;;;;;;;36.53;20.13;;;;;;;;;;5052253;28;20212;-61
2022/03/26 11:37:55;;;;;;;35.40;20.92;;;;;;;;;;5054644;28;20255;-61
2022/03/26 11:40:48;;;;;;;39.20;20.73;;;;;;;;;;5057019;28;20259;-62
2022/03/26 11:43:39;;;;;;;39.70;19.73;;;;;;;;;;5056221;28;20239;-62
2022/03/26 11:51:40;;;;;;;41.83;23.00;;;;;;;;;;5056800;28;20242;-62
2022/03/26 11:54:13;;;;;;;44.50;25.05;;;;;;;;;;5056895;28;20565;-62
2022/03/26 11:56:41;;;;;;;44.17;24.85;;;;;;;;;;5057141;28;20310;-61
2022/03/26 11:59:17;;;;;;;41.55;24.17;;;;;;;;;;5056034;28;20223;-62
2022/03/26 12:01:48;;;;;;;38.55;23.80;;;;;;;;;;5056385;28;20537;-62
2022/03/26 12:04:17;;;;;;;42.42;21.25;;;;;;;;;;5056735;28;20321;-62
2022/03/26 12:06:55;;;;;;;35.70;22.08;;;;;;;;;;5054364;28;20217;-62
2022/03/26 12:09:37;;;;;;;40.33;23.25;;;;;;;;;;5038612;28;20262;-62
2022/03/26 12:12:04;;;;;;;37.30;21.02;;;;;;;;;;5043320;28;20552;-62
2022/03/26 12:14:32;;;;;;;41.42;24.42;;;;;;;;;;5056497;28;20675;-62
2022/03/26 12:16:59;;;;;;;38.85;23.88;;;;;;;;;;5056010;28;20251;-60
2022/03/26 12:19:45;;;;;;;32.30;19.38;;;;;;;;;;5055577;28;20240;-62
2022/03/26 12:22:20;;;;;;;29.98;17.58;;;;;;;;;;5055689;28;20289;-60
2022/03/26 12:24:48;;;;;;;27.65;17.42;;;;;;;;;;5043071;28;20232;-60
2022/03/26 12:27:16;;;;;;;32.25;20.67;;;;;;;;;;5050464;28;20601;-60
2022/03/26 12:29:43;;;;;;;29.75;19.63;;;;;;;;;;5050911;28;20216;-62
2022/03/26 12:32:10;;;;;;;35.70;20.88;;;;;;;;;;5055327;28;20220;-62
2022/03/26 12:35:01;;;;;;;30.23;20.23;;;;;;;;;;5053143;28;20216;-62
2022/03/26 12:37:29;;;;;;;32.97;21.40;;;;;;;;;;5047037;28;20223;-60
2022/03/26 12:39:56;;;;;;;32.47;18.70;;;;;;;;;;5054584;28;20738;-62
2022/03/26 12:42:25;;;;;;;23.85;14.73;;;;;;;;;;5056101;28;20251;-63
2022/03/26 12:44:53;;;;;;;25.83;15.38;;;;;;;;;;5055089;28;20240;-62
2022/03/26 12:47:23;;;;;;;24.55;14.70;;;;;;;;;;5055877;28;20220;-61
2022/03/26 12:49:54;;;;;;;22.55;15.30;;;;;;;;;;5055488;28;20232;-64
2022/03/26 12:52:23;;;;;;;19.33;13.25;;;;;;;;;;5055916;28;20240;-63
2022/03/26 12:54:59;;;;;;;25.38;14.43;;;;;;;;;;5055861;28;20231;-63
2022/03/26 13:00:13;;;;;;;24.17;15.50;;;;;;;;;;5055372;28;20247;-63
2022/03/26 13:02:41;;;;;;;26.45;14.68;;;;;;;;;;5055813;28;20216;-62
2022/03/26 13:05:08;;;;;;;25.48;16.52;;;;;;;;;;5055060;28;20248;-63
2022/03/26 13:07:37;;;;;;;25.27;16.23;;;;;;;;;;5055404;28;20571;-63
2022/03/26 13:10:05;;;;;;;31.30;17.35;;;;;;;;;;5055945;28;20231;-62
2022/03/26 13:12:32;;;;;;;28.40;17.08;;;;;;;;;;5055649;28;20224;-63
2022/03/26 13:15:04;;;;;;;28.58;18.20;;;;;;;;;;5055617;28;20232;-63
2022/03/26 13:17:32;;;;;;;33.22;18.92;;;;;;;;;;5055523;28;20319;-63
2022/03/26 13:19:59;;;;;;;26.50;17.35;;;;;;;;;;5054290;28;20228;-64
2022/03/26 13:22:29;;;;;;;29.90;17.70;;;;;;;;;;5055117;28;20227;-62
2022/03/26 13:24:57;;;;;;;29.02;18.02;;;;;;;;;;5055536;28;20236;-62
2022/03/26 13:27:26;;;;;;;28.63;17.77;;;;;;;;;;5055822;28;20224;-64
2022/03/26 13:29:53;;;;;;;23.08;12.10;;;;;;;;;;5055162;28;20743;-61
2022/03/26 13:32:24;;;;;;;21.90;13.68;;;;;;;;;;5053746;28;20381;-62
2022/03/26 13:34:52;;;;;;;24.02;13.38;;;;;;;;;;5040992;28;20647;-65
2022/03/26 13:37:22;;;;;;;22.30;12.90;;;;;;;;;;5041638;28;20269;-64
2022/03/26 13:39:55;;;;;;;24.55;12.15;;;;;;;;;;5053974;28;20528;-62
2022/03/26 13:42:23;;;;;;;20.90;12.30;;;;;;;;;;5055042;28;20306;-63
2022/03/26 13:44:52;;;;;;;22.90;13.18;;;;;;;;;;5055066;28;20271;-64
2022/03/26 13:47:30;;;;;;;26.15;13.63;;;;;;;;;;5054651;28;20710;-64
2022/03/26 13:50:12;;;;;;;24.98;12.70;;;;;;;;;;5054785;28;20228;-62
2022/03/26 13:52:42;;;;;;;21.33;13.68;;;;;;;;;;5054698;28;20234;-62
2022/03/26 13:55:28;;;;;;;22.00;11.88;;;;;;;;;;5053426;28;20220;-62
2022/03/26 13:57:57;;;;;;;24.00;12.90;;;;;;;;;;5052213;28;20215;-61
2022/03/26 14:00:27;;;;;;;22.50;13.75;;;;;;;;;;5054756;28;20224;-62
2022/03/26 14:02:55;;;;;;;23.00;14.15;;;;;;;;;;5054833;28;20228;-61
2022/03/26 14:05:27;;;;;;;27.27;14.65;;;;;;;;;;5054063;28;20296;-61
2022/03/26 14:07:56;;;;;;;21.58;13.68;;;;;;;;;;5054650;28;20228;-62
2022/03/26 14:10:41;;;;;;;26.13;12.90;;;;;;;;;;5053997;28;20315;-62
2022/03/26 14:13:10;;;;;;;29.52;14.07;;;;;;;;;;5054673;28;20362;-66
2022/03/26 14:15:38;;;;;;;29.10;14.02;;;;;;;;;;5053869;28;20318;-62
2022/03/26 14:18:07;;;;;;;20.58;12.27;;;;;;;;;;5054478;28;20757;-59
2022/03/26 14:20:35;;;;;;;26.65;13.80;;;;;;;;;;5053691;28;20281;-60
2022/03/26 14:23:05;;;;;;;15.23;9.73;;;;;;;;;;5054405;28;20220;-59
2022/03/26 14:25:35;;;;;;;18.65;11.15;;;;;;;;;;5054054;28;20234;-61
2022/03/26 14:28:05;;;;;;;18.70;11.70;;;;;;;;;;5054228;28;20285;-58
2022/03/26 14:30:33;;;;;;;23.38;13.50;;;;;;;;;;5054284;28;20583;-60
2022/03/26 14:33:01;;;;;;;25.17;13.85;;;;;;;;;;5054153;28;20708;-61
2022/03/26 14:35:29;;;;;;;24.88;14.13;;;;;;;;;;5053559;28;20231;-59
2022/03/26 14:37:57;;;;;;;23.38;14.13;;;;;;;;;;5053276;28;20273;-61